WEATHER DATA

YESTERDAY
Time Temp. Dewp. Hum. Bar. 1h Prec. 24h Prec.
00:03 15.5 13.2 86 1016.9 0.0000 0.0000
00:13 15.4 13.1 86 1016.9 0.0000 0.0000
00:23 15.4 13.2 87 1016.9 0.0000 0.0000
00:34 15.3 13.2 87 1017 0.0000 0.0000
00:43 15.4 13.2 87 1016.9 0.0000 0.0000
00:53 15.4 13.2 87 1016.8 0.0000 0.0000
01:04 15.5 13.3 87 1016.8 0.0000 0.0000
01:14 15.6 13.3 86 1016.7 0.0000 0.0000
01:23 15.6 13.1 85 1016.7 0.0000 0.0000
01:33 15.6 13.1 85 1016.5 0.0000 0.0000
01:44 15.6 13.1 85 1016.4 0.0000 0.0000
01:54 15.6 13.1 85 1016.3 0.0000 0.0000
02:04 15.5 13 85 1016.2 0.0000 0.0000
02:14 15.5 13 85 1016.2 0.0000 0.0000
02:24 15.4 12.9 85 1016.1 0.0000 0.0000
02:34 15.3 12.8 85 1016.1 0.0000 0.0000
02:44 15.2 12.9 86 1016.1 0.0000 0.0000
02:54 15.2 12.9 86 1016.1 0.0000 0.0000
03:04 15.2 13.1 87 1016.1 0.0000 0.0000
03:14 15.1 12.8 86 1016.1 0.0000 0.0000
03:25 15.1 12.8 86 1016 0.0000 0.0000
03:35 15.1 12.6 85 1016 0.0000 0.0000
03:44 15.1 12.6 85 1015.9 0.0000 0.0000
03:54 15.2 12.7 85 1015.9 0.0000 0.0000
04:05 15.2 12.5 84 1015.9 0.0000 0.0000
04:15 15.2 12.5 84 1015.7 0.0000 0.0000
04:24 15.3 12.6 84 1015.9 0.0000 0.0000
04:35 15.2 12.5 84 1015.7 0.0000 0.0000
04:45 15.1 12.4 84 1015.7 0.0000 0.0000
04:55 14.9 12.4 85 1015.7 0.0000 0.0000
05:05 14.8 12.3 85 1015.7 0.0000 0.0000
05:15 14.7 12.4 86 1015.7 0.0000 0.0000
05:25 14.7 12.4 86 1015.7 0.0000 0.0000
05:35 14.7 12.6 87 1015.7 0.0000 0.0000
05:45 14.8 12.5 86 1015.9 0.0000 0.0000
05:55 14.8 12.5 86 1016 0.0000 0.0000
06:05 14.8 12.5 86 1016 0.0000 0.0000
06:15 14.8 12.5 86 1016 0.0000 0.0000
06:26 14.9 12.6 86 1015.9 0.0000 0.0000
06:36 15 12.5 85 1015.9 0.0000 0.0000
06:45 15 12.5 85 1015.9 0.0000 0.0000
06:56 15 12.5 85 1015.9 0.0000 0.0000
07:06 15.1 12.6 85 1016 0.0000 0.0000
07:16 15.2 12.7 85 1016.1 0.0000 0.0000
07:25 15.3 12.8 85 1016.1 0.0000 0.0000
07:36 15.4 12.9 85 1016.1 0.0000 0.0000
07:46 15.5 13 85 1016.2 0.0000 0.0000
07:56 15.6 13.1 85 1016.2 0.0000 0.0000
08:06 15.7 13.2 85 1016.4 0.0000 0.0000
08:16 15.8 13.3 85 1016.4 0.0000 0.0000
08:26 16 13.5 85 1016.5 0.0000 0.0000
08:36 16.5 13.6 83 1016.7 0.0000 0.0000
08:47 16.9 13.8 82 1016.8 0.0000 0.0000
08:56 17.2 13.7 80 1017 0.0000 0.0000
09:06 17.5 14 80 1017.1 0.0000 0.0000
09:17 17.9 14.4 80 1017.1 0.0000 0.0000
09:27 18.1 14.4 79 1017.2 0.0000 0.0000
09:37 18.1 14.8 81 1017.4 0.0000 0.0000
09:46 18 14.9 82 1017.5 0.0000 0.0000
09:57 17.9 14.8 82 1017.5 0.0000 0.0000
10:07 18 15.1 83 1017.5 0.0000 0.0000
10:17 18.1 15 82 1017.5 0.0000 0.0000
10:27 18.1 14.6 80 1017.6 0.0000 0.0000
10:37 17.9 14.4 80 1017.6 0.0000 0.0000
10:47 17.8 14.5 81 1017.6 0.0000 0.0000
10:57 18.3 14.6 79 1017.7 0.0000 0.0000
11:08 18.8 14.7 77 1017.7 0.0000 0.0000
11:17 18.7 14.2 75 1017.7 0.0000 0.0000
11:27 18.9 14 73 1017.7 0.0000 0.0000
11:38 19 14.3 74 1017.7 0.0000 0.0000
11:48 19.4 14.4 73 1017.7 0.0000 0.0000
11:57 19.9 14.3 70 1017.6 0.0000 0.0000
12:07 20.4 13.8 66 1017.6 0.0000 0.0000
12:18 20.1 13.1 64 1017.5 0.0000 0.0000
12:28 21 13.2 61 1017.6 0.0000 0.0000
12:38 21.3 13 59 1017.4 0.0000 0.0000
12:48 21.7 12.8 57 1017.4 0.0000 0.0000
12:58 21.9 11.9 53 1017.2 0.0000 0.0000
13:08 22.3 12 52 1017.2 0.0000 0.0000
13:18 22.1 12.1 53 1017.2 0.0000 0.0000
13:28 21.9 11.6 52 1017.2 0.0000 0.0000
13:38 21.8 11.8 53 1017.4 0.0000 0.0000
13:48 22.1 11.5 51 1017.4 0.0000 0.0000
13:59 22 11.7 52 1017.2 0.0000 0.0000
14:09 22.2 11 49 1017.4 0.0000 0.0000
14:18 22.3 10.8 48 1017.5 0.0000 0.0000
14:28 22 10.2 47 1017.4 0.0000 0.0000
14:39 21.8 10.6 49 1017.2 0.0000 0.0000
14:49 21.8 11.2 51 1017.2 0.0000 0.0000
14:58 22.1 12.9 56 1017.1 0.0000 0.0000
15:09 22.6 12.5 53 1017.2 0.0000 0.0000
15:19 23.2 11.6 48 1017.4 0.0000 0.0000
15:29 23 11.4 48 1017.2 0.0000 0.0000
15:39 23.3 12 49 1017.2 0.0000 0.0000
15:49 23.6 11.3 46 1017.1 0.0000 0.0000
15:59 23.7 12.7 50 1017.1 0.0000 0.0000
16:09 23.6 12.6 50 1017 0.0000 0.0000
16:20 23 12.6 52 1017 0.0000 0.0000
16:29 23 12.9 53 1017 0.0000 0.0000
16:39 22.8 12.7 53 1017 0.0000 0.0000
16:49 23 12.9 53 1017 0.0000 0.0000
17:00 23.5 13.1 52 1017.1 0.0000 0.0000
17:10 23.3 12.6 51 1017.1 0.0000 0.0000
17:19 23.2 12.5 51 1017.2 0.0000 0.0000
17:30 22.9 12.5 52 1017.2 0.0000 0.0000
17:40 23 12.6 52 1017.2 0.0000 0.0000
17:50 23 12.6 52 1017.1 0.0000 0.0000
17:59 23.3 12.9 52 1017.1 0.0000 0.0000
18:10 22.9 12.5 52 1017 0.0000 0.0000
18:20 23 12.6 52 1017 0.0000 0.0000
18:30 22.8 12.7 53 1016.9 0.0000 0.0000
18:41 22.3 12.3 53 1016.9 0.0000 0.0000
18:50 22 12 53 1017 0.0000 0.0000
19:00 21.8 12.4 55 1017 0.0000 0.0000
19:21 21.5 12.1 55 1016.9 0.0000 0.0000
19:30 21.6 11.9 54 1016.8 0.0000 0.0000
19:40 21.5 12.1 55 1016.8 0.0000 0.0000
19:51 21.2 11.8 55 1016.8 0.0000 0.0000
20:01 20.9 11.8 56 1016.8 0.0000 0.0000
20:11 20.6 11.5 56 1016.9 0.0000 0.0000
20:20 20.3 11.2 56 1017 0.0000 0.0000
20:31 20.1 8.4 47 1017.1 0.0000 0.0000
20:41 19.8 7.9 46 1017.2 0.0000 0.0000
20:51 19.7 8.4 48 1017.4 0.0000 0.0000
21:01 19.6 9.2 51 1017.4 0.0000 0.0000
21:11 19.4 10.1 55 1017.2 0.0000 0.0000
21:21 19.2 10.5 57 1017.4 0.0000 0.0000
21:31 19 10.3 57 1017.4 0.0000 0.0000
21:42 18.9 9.1 53 1017.4 0.0000 0.0000
21:51 18.8 9 53 1017.4 0.0000 0.0000
22:01 18.8 9.6 55 1017.4 0.0000 0.0000
22:12 18.7 10 57 1017.4 0.0000 0.0000
22:22 18.7 10.8 60 1017.5 0.0000 0.0000
22:31 18.5 10.8 61 1017.6 0.0000 0.0000
22:41 18.4 11.2 63 1017.6 0.0000 0.0000
22:52 18.4 11.5 64 1017.6 0.0000 0.0000
23:02 18.4 7.2 48 1017.5 0.0000 0.0000
23:12 18.5 10.1 58 1017.5 0.0000 0.0000
23:22 18.4 7.8 50 1017.4 0.0000 0.0000
23:32 18.5 6 44 1017.5 0.0000 0.0000
23:42 18.7 6.2 44 1017.5 0.0000 0.0000
23:52 18.8 6.6 45 1017.5 0.0000

DAY STATISTIC

2019-08-17
TEMPERATURE
AVERAGE
18.6
HIGH
23.7
15:59
LOW
14.7
05:15
PRESSURE
AVERAGE
1016.9
HIGH
1017.7
10:57
LOW
1015.7
04:15
DEWPOINT
AVERAGE
12.3
HIGH
15.1
10:07
LOW
6.0
23:32
HUMIDITY
AVERAGE
69
HIGH
87
00:23
LOW
44
23:32
PRECIPITATION
RAIN HOUR
0.0
RAIN DAY
0.0
TEMPERATURE (°C)
LOW
14.7
HIGH
23.7
AVERAGE
18.6
PRESSURE (hpa)
LOW
1015.7
HIGH
1017.7
AVERAGE
1016.9
DEVICE